sensor_id;sensor_type;location;lat;lon;timestamp;P1;durP1;ratioP1;P2;durP2;ratioP2
75311;SDS011;63906;55.686;37.532;2023-06-24T00:04:36;9.77;;;7.10;;
75311;SDS011;63906;55.686;37.532;2023-06-24T00:09:36;11.05;;;8.07;;
75311;SDS011;63906;55.686;37.532;2023-06-24T00:14:37;10.13;;;7.38;;
75311;SDS011;63906;55.686;37.532;2023-06-24T00:19:38;10.00;;;7.63;;
75311;SDS011;63906;55.686;37.532;2023-06-24T00:24:38;11.68;;;7.53;;
75311;SDS011;63906;55.686;37.532;2023-06-24T00:29:39;9.70;;;7.60;;
75311;SDS011;63906;55.686;37.532;2023-06-24T00:34:40;10.63;;;7.00;;
75311;SDS011;63906;55.686;37.532;2023-06-24T00:39:43;10.63;;;8.05;;
75311;SDS011;63906;55.686;37.532;2023-06-24T00:44:44;11.55;;;8.40;;
75311;SDS011;63906;55.686;37.532;2023-06-24T00:49:45;9.82;;;7.55;;
75311;SDS011;63906;55.686;37.532;2023-06-24T00:54:45;11.02;;;8.20;;
75311;SDS011;63906;55.686;37.532;2023-06-24T00:59:46;10.93;;;8.50;;
75311;SDS011;63906;55.686;37.532;2023-06-24T01:04:48;14.02;;;9.05;;
75311;SDS011;63906;55.686;37.532;2023-06-24T01:09:48;13.80;;;9.43;;
75311;SDS011;63906;55.686;37.532;2023-06-24T01:14:49;15.88;;;10.45;;
75311;SDS011;63906;55.686;37.532;2023-06-24T01:20:16;14.85;;;10.05;;
75311;SDS011;63906;55.686;37.532;2023-06-24T01:35:59;12.45;;;8.38;;
75311;SDS011;63906;55.686;37.532;2023-06-24T01:41:03;11.40;;;8.80;;
75311;SDS011;63906;55.686;37.532;2023-06-24T01:46:06;8.13;;;6.03;;
75311;SDS011;63906;55.686;37.532;2023-06-24T01:51:13;5.95;;;4.53;;
75311;SDS011;63906;55.686;37.532;2023-06-24T01:56:17;6.50;;;4.38;;
75311;SDS011;63906;55.686;37.532;2023-06-24T02:01:21;4.82;;;4.13;;
75311;SDS011;63906;55.686;37.532;2023-06-24T02:06:24;4.38;;;2.63;;
75311;SDS011;63906;55.686;37.532;2023-06-24T02:11:26;2.50;;;2.13;;
75311;SDS011;63906;55.686;37.532;2023-06-24T02:16:30;3.55;;;2.40;;
75311;SDS011;63906;55.686;37.532;2023-06-24T02:21:34;2.38;;;2.05;;
75311;SDS011;63906;55.686;37.532;2023-06-24T02:26:36;2.45;;;2.00;;
75311;SDS011;63906;55.686;37.532;2023-06-24T02:31:40;2.10;;;1.77;;
75311;SDS011;63906;55.686;37.532;2023-06-24T02:36:41;2.17;;;1.70;;
75311;SDS011;63906;55.686;37.532;2023-06-24T02:41:41;2.10;;;1.73;;
75311;SDS011;63906;55.686;37.532;2023-06-24T02:46:44;1.27;;;1.15;;
75311;SDS011;63906;55.686;37.532;2023-06-24T02:56:48;2.10;;;1.35;;
75311;SDS011;63906;55.686;37.532;2023-06-24T03:01:49;2.33;;;1.35;;
75311;SDS011;63906;55.686;37.532;2023-06-24T03:06:54;1.55;;;1.38;;
75311;SDS011;63906;55.686;37.532;2023-06-24T03:11:55;1.75;;;1.52;;
75311;SDS011;63906;55.686;37.532;2023-06-24T03:16:55;1.73;;;1.63;;
75311;SDS011;63906;55.686;37.532;2023-06-24T03:21:57;1.73;;;1.40;;
75311;SDS011;63906;55.686;37.532;2023-06-24T03:26:57;1.13;;;1.00;;
75311;SDS011;63906;55.686;37.532;2023-06-24T03:31:58;1.67;;;1.58;;
75311;SDS011;63906;55.686;37.532;2023-06-24T03:36:58;1.67;;;1.13;;
75311;SDS011;63906;55.686;37.532;2023-06-24T03:41:59;1.30;;;0.80;;
75311;SDS011;63906;55.686;37.532;2023-06-24T03:47:00;1.25;;;1.15;;
75311;SDS011;63906;55.686;37.532;2023-06-24T03:52:03;1.52;;;0.98;;
75311;SDS011;63906;55.686;37.532;2023-06-24T03:57:08;0.77;;;0.77;;
75311;SDS011;63906;55.686;37.532;2023-06-24T04:02:09;1.13;;;0.80;;
75311;SDS011;63906;55.686;37.532;2023-06-24T04:07:10;1.10;;;1.00;;
75311;SDS011;63906;55.686;37.532;2023-06-24T04:12:10;1.15;;;0.75;;
75311;SDS011;63906;55.686;37.532;2023-06-24T04:17:11;1.10;;;1.00;;
75311;SDS011;63906;55.686;37.532;2023-06-24T04:22:11;0.93;;;0.93;;
75311;SDS011;63906;55.686;37.532;2023-06-24T04:27:12;1.30;;;1.08;;
75311;SDS011;63906;55.686;37.532;2023-06-24T04:32:12;1.35;;;0.98;;
75311;SDS011;63906;55.686;37.532;2023-06-24T04:37:13;1.88;;;1.25;;
75311;SDS011;63906;55.686;37.532;2023-06-24T04:42:14;0.90;;;0.90;;
75311;SDS011;63906;55.686;37.532;2023-06-24T04:47:15;1.10;;;1.00;;
75311;SDS011;63906;55.686;37.532;2023-06-24T04:52:15;2.22;;;0.73;;
75311;SDS011;63906;55.686;37.532;2023-06-24T04:57:23;1.23;;;0.70;;
75311;SDS011;63906;55.686;37.532;2023-06-24T05:02:30;0.70;;;0.70;;
75311;SDS011;63906;55.686;37.532;2023-06-24T05:07:31;1.73;;;0.80;;
75311;SDS011;63906;55.686;37.532;2023-06-24T05:12:31;1.45;;;0.63;;
75311;SDS011;63906;55.686;37.532;2023-06-24T05:17:32;0.68;;;0.68;;
75311;SDS011;63906;55.686;37.532;2023-06-24T05:22:32;0.80;;;0.80;;
75311;SDS011;63906;55.686;37.532;2023-06-24T05:27:33;0.75;;;0.70;;
75311;SDS011;63906;55.686;37.532;2023-06-24T05:32:33;0.93;;;0.90;;
75311;SDS011;63906;55.686;37.532;2023-06-24T05:37:34;0.93;;;0.73;;
75311;SDS011;63906;55.686;37.532;2023-06-24T05:42:35;1.00;;;0.90;;
75311;SDS011;63906;55.686;37.532;2023-06-24T05:47:36;1.08;;;0.98;;
75311;SDS011;63906;55.686;37.532;2023-06-24T05:52:37;0.80;;;0.70;;
75311;SDS011;63906;55.686;37.532;2023-06-24T05:57:38;0.80;;;0.80;;
75311;SDS011;63906;55.686;37.532;2023-06-24T06:02:39;1.17;;;0.90;;
75311;SDS011;63906;55.686;37.532;2023-06-24T06:07:39;0.80;;;0.73;;
75311;SDS011;63906;55.686;37.532;2023-06-24T06:12:40;1.13;;;1.00;;
75311;SDS011;63906;55.686;37.532;2023-06-24T06:17:40;2.28;;;1.00;;
75311;SDS011;63906;55.686;37.532;2023-06-24T06:22:41;1.40;;;0.80;;
75311;SDS011;63906;55.686;37.532;2023-06-24T06:27:41;1.42;;;1.08;;
75311;SDS011;63906;55.686;37.532;2023-06-24T06:32:42;0.90;;;0.80;;
75311;SDS011;63906;55.686;37.532;2023-06-24T06:37:43;0.88;;;0.88;;
75311;SDS011;63906;55.686;37.532;2023-06-24T06:42:43;1.77;;;0.80;;
75311;SDS011;63906;55.686;37.532;2023-06-24T06:47:44;1.30;;;0.90;;
75311;SDS011;63906;55.686;37.532;2023-06-24T06:52:44;1.85;;;1.15;;
75311;SDS011;63906;55.686;37.532;2023-06-24T06:57:45;1.60;;;0.90;;
75311;SDS011;63906;55.686;37.532;2023-06-24T07:02:46;1.67;;;1.20;;
75311;SDS011;63906;55.686;37.532;2023-06-24T07:07:46;2.08;;;1.40;;
75311;SDS011;63906;55.686;37.532;2023-06-24T07:12:50;2.30;;;1.40;;
75311;SDS011;63906;55.686;37.532;2023-06-24T07:17:51;1.85;;;1.65;;
75311;SDS011;63906;55.686;37.532;2023-06-24T07:22:52;1.30;;;1.20;;
75311;SDS011;63906;55.686;37.532;2023-06-24T07:27:53;3.22;;;1.23;;
75311;SDS011;63906;55.686;37.532;2023-06-24T07:32:53;1.70;;;1.60;;
75311;SDS011;63906;55.686;37.532;2023-06-24T07:37:54;2.55;;;1.70;;
75311;SDS011;63906;55.686;37.532;2023-06-24T07:42:54;1.92;;;1.33;;
75311;SDS011;63906;55.686;37.532;2023-06-24T07:47:55;2.28;;;1.40;;
75311;SDS011;63906;55.686;37.532;2023-06-24T07:52:55;1.80;;;1.60;;
75311;SDS011;63906;55.686;37.532;2023-06-24T07:57:56;3.80;;;1.42;;
75311;SDS011;63906;55.686;37.532;2023-06-24T08:02:58;2.08;;;1.35;;
75311;SDS011;63906;55.686;37.532;2023-06-24T08:07:59;1.95;;;1.50;;
75311;SDS011;63906;55.686;37.532;2023-06-24T08:12:59;1.95;;;1.42;;
75311;SDS011;63906;55.686;37.532;2023-06-24T08:18:00;3.38;;;1.70;;
75311;SDS011;63906;55.686;37.532;2023-06-24T08:23:00;2.28;;;2.00;;
75311;SDS011;63906;55.686;37.532;2023-06-24T08:28:01;2.35;;;1.80;;
75311;SDS011;63906;55.686;37.532;2023-06-24T08:33:02;2.20;;;1.70;;
75311;SDS011;63906;55.686;37.532;2023-06-24T08:38:02;1.92;;;1.30;;
75311;SDS011;63906;55.686;37.532;2023-06-24T08:43:03;2.35;;;1.40;;
75311;SDS011;63906;55.686;37.532;2023-06-24T08:48:03;1.73;;;1.60;;
75311;SDS011;63906;55.686;37.532;2023-06-24T08:53:06;2.42;;;1.80;;
75311;SDS011;63906;55.686;37.532;2023-06-24T08:58:09;1.80;;;1.50;;
75311;SDS011;63906;55.686;37.532;2023-06-24T09:03:09;3.83;;;2.17;;
75311;SDS011;63906;55.686;37.532;2023-06-24T09:08:10;2.25;;;2.05;;
75311;SDS011;63906;55.686;37.532;2023-06-24T09:13:11;2.58;;;2.30;;
75311;SDS011;63906;55.686;37.532;2023-06-24T09:18:11;3.53;;;2.28;;
75311;SDS011;63906;55.686;37.532;2023-06-24T09:23:12;3.25;;;2.22;;
75311;SDS011;63906;55.686;37.532;2023-06-24T09:28:13;2.45;;;2.15;;
75311;SDS011;63906;55.686;37.532;2023-06-24T09:33:13;3.20;;;2.30;;
75311;SDS011;63906;55.686;37.532;2023-06-24T09:38:14;4.07;;;2.40;;
75311;SDS011;63906;55.686;37.532;2023-06-24T09:43:34;3.08;;;2.00;;
75311;SDS011;63906;55.686;37.532;2023-06-24T09:48:37;3.42;;;2.60;;
75311;SDS011;63906;55.686;37.532;2023-06-24T09:53:37;3.75;;;2.70;;
75311;SDS011;63906;55.686;37.532;2023-06-24T09:58:38;6.45;;;3.45;;
75311;SDS011;63906;55.686;37.532;2023-06-24T10:03:42;2.95;;;2.42;;
75311;SDS011;63906;55.686;37.532;2023-06-24T10:08:43;4.03;;;3.60;;
75311;SDS011;63906;55.686;37.532;2023-06-24T10:13:44;5.38;;;3.72;;
75311;SDS011;63906;55.686;37.532;2023-06-24T10:18:45;4.18;;;3.60;;
75311;SDS011;63906;55.686;37.532;2023-06-24T10:44:59;4.32;;;3.92;;
75311;SDS011;63906;55.686;37.532;2023-06-24T10:50:10;4.40;;;3.55;;
75311;SDS011;63906;55.686;37.532;2023-06-24T10:55:18;4.15;;;3.75;;
75311;SDS011;63906;55.686;37.532;2023-06-24T11:00:20;4.65;;;4.13;;
75311;SDS011;63906;55.686;37.532;2023-06-24T11:05:21;4.72;;;4.20;;
75311;SDS011;63906;55.686;37.532;2023-06-24T11:10:22;3.75;;;3.30;;
75311;SDS011;63906;55.686;37.532;2023-06-24T11:15:22;4.30;;;3.90;;
75311;SDS011;63906;55.686;37.532;2023-06-24T11:20:23;6.80;;;3.80;;
75311;SDS011;63906;55.686;37.532;2023-06-24T11:25:23;3.63;;;2.90;;
75311;SDS011;63906;55.686;37.532;2023-06-24T11:30:24;2.90;;;2.60;;
75311;SDS011;63906;55.686;37.532;2023-06-24T11:35:25;3.00;;;2.67;;
75311;SDS011;63906;55.686;37.532;2023-06-24T11:40:26;2.30;;;2.10;;
75311;SDS011;63906;55.686;37.532;2023-06-24T11:45:26;2.72;;;2.38;;
75311;SDS011;63906;55.686;37.532;2023-06-24T11:50:27;2.80;;;2.50;;
75311;SDS011;63906;55.686;37.532;2023-06-24T11:55:28;2.35;;;2.15;;
75311;SDS011;63906;55.686;37.532;2023-06-24T12:00:40;2.38;;;2.17;;
75311;SDS011;63906;55.686;37.532;2023-06-24T12:05:46;2.15;;;1.92;;
75311;SDS011;63906;55.686;37.532;2023-06-24T12:10:47;2.42;;;2.00;;
75311;SDS011;63906;55.686;37.532;2023-06-24T12:15:47;3.00;;;2.08;;
75311;SDS011;63906;55.686;37.532;2023-06-24T12:20:48;2.45;;;2.22;;
75311;SDS011;63906;55.686;37.532;2023-06-24T12:25:48;2.00;;;1.80;;
75311;SDS011;63906;55.686;37.532;2023-06-24T12:30:49;1.60;;;1.50;;
75311;SDS011;63906;55.686;37.532;2023-06-24T12:35:51;1.88;;;1.70;;
75311;SDS011;63906;55.686;37.532;2023-06-24T12:40:51;1.83;;;1.55;;
75311;SDS011;63906;55.686;37.532;2023-06-24T12:45:52;1.80;;;1.45;;
75311;SDS011;63906;55.686;37.532;2023-06-24T12:50:53;2.22;;;2.03;;
75311;SDS011;63906;55.686;37.532;2023-06-24T12:55:53;2.63;;;2.15;;
75311;SDS011;63906;55.686;37.532;2023-06-24T13:00:55;3.53;;;2.33;;
75311;SDS011;63906;55.686;37.532;2023-06-24T13:05:55;5.53;;;3.35;;
75311;SDS011;63906;55.686;37.532;2023-06-24T13:15:57;4.83;;;3.00;;
75311;SDS011;63906;55.686;37.532;2023-06-24T13:20:58;4.32;;;2.90;;
75311;SDS011;63906;55.686;37.532;2023-06-24T13:25:58;3.97;;;3.10;;
75311;SDS011;63906;55.686;37.532;2023-06-24T13:30:59;2.97;;;2.50;;
75311;SDS011;63906;55.686;37.532;2023-06-24T13:35:59;2.97;;;2.50;;
75311;SDS011;63906;55.686;37.532;2023-06-24T13:41:00;2.85;;;2.50;;
75311;SDS011;63906;55.686;37.532;2023-06-24T13:46:00;4.15;;;2.58;;
75311;SDS011;63906;55.686;37.532;2023-06-24T13:51:01;2.63;;;2.08;;
75311;SDS011;63906;55.686;37.532;2023-06-24T13:56:02;2.28;;;2.08;;
75311;SDS011;63906;55.686;37.532;2023-06-24T14:01:02;2.40;;;2.15;;
75311;SDS011;63906;55.686;37.532;2023-06-24T14:06:03;5.82;;;2.30;;
75311;SDS011;63906;55.686;37.532;2023-06-24T14:11:04;2.75;;;2.00;;
75311;SDS011;63906;55.686;37.532;2023-06-24T14:16:05;2.20;;;1.83;;
75311;SDS011;63906;55.686;37.532;2023-06-24T14:21:06;2.47;;;2.03;;
75311;SDS011;63906;55.686;37.532;2023-06-24T14:26:07;3.03;;;2.40;;
75311;SDS011;63906;55.686;37.532;2023-06-24T14:31:08;3.30;;;2.45;;
75311;SDS011;63906;55.686;37.532;2023-06-24T14:36:08;3.10;;;2.80;;
75311;SDS011;63906;55.686;37.532;2023-06-24T14:41:09;3.55;;;2.60;;
75311;SDS011;63906;55.686;37.532;2023-06-24T14:46:09;3.00;;;2.40;;
75311;SDS011;63906;55.686;37.532;2023-06-24T14:51:10;3.20;;;2.70;;
75311;SDS011;63906;55.686;37.532;2023-06-24T14:56:10;3.95;;;2.75;;
75311;SDS011;63906;55.686;37.532;2023-06-24T15:01:11;2.83;;;2.50;;
75311;SDS011;63906;55.686;37.532;2023-06-24T15:06:12;2.63;;;2.25;;
75311;SDS011;63906;55.686;37.532;2023-06-24T15:11:12;3.10;;;2.53;;
75311;SDS011;63906;55.686;37.532;2023-06-24T15:16:13;3.38;;;2.45;;
75311;SDS011;63906;55.686;37.532;2023-06-24T15:21:13;3.22;;;2.90;;
75311;SDS011;63906;55.686;37.532;2023-06-24T15:26:14;2.97;;;2.45;;
75311;SDS011;63906;55.686;37.532;2023-06-24T15:31:15;3.22;;;2.50;;
75311;SDS011;63906;55.686;37.532;2023-06-24T15:36:15;2.05;;;1.83;;
75311;SDS011;63906;55.686;37.532;2023-06-24T15:41:16;3.10;;;1.92;;
75311;SDS011;63906;55.686;37.532;2023-06-24T15:46:17;2.67;;;2.00;;
75311;SDS011;63906;55.686;37.532;2023-06-24T15:51:17;1.88;;;1.73;;
75311;SDS011;63906;55.686;37.532;2023-06-24T15:56:19;2.60;;;2.17;;
75311;SDS011;63906;55.686;37.532;2023-06-24T16:01:20;2.63;;;1.90;;
75311;SDS011;63906;55.686;37.532;2023-06-24T16:06:20;3.05;;;2.05;;
75311;SDS011;63906;55.686;37.532;2023-06-24T16:11:22;2.45;;;1.90;;
75311;SDS011;63906;55.686;37.532;2023-06-24T16:16:22;2.90;;;2.38;;
75311;SDS011;63906;55.686;37.532;2023-06-24T16:21:23;2.67;;;2.33;;
75311;SDS011;63906;55.686;37.532;2023-06-24T16:26:23;3.45;;;2.33;;
75311;SDS011;63906;55.686;37.532;2023-06-24T16:31:24;3.92;;;2.20;;
75311;SDS011;63906;55.686;37.532;2023-06-24T16:36:24;3.10;;;2.70;;
75311;SDS011;63906;55.686;37.532;2023-06-24T16:41:25;3.75;;;2.58;;
75311;SDS011;63906;55.686;37.532;2023-06-24T16:46:26;2.85;;;2.45;;
75311;SDS011;63906;55.686;37.532;2023-06-24T16:51:27;2.22;;;1.85;;
75311;SDS011;63906;55.686;37.532;2023-06-24T16:56:27;2.10;;;1.65;;
75311;SDS011;63906;55.686;37.532;2023-06-24T17:01:28;2.35;;;1.90;;
75311;SDS011;63906;55.686;37.532;2023-06-24T17:06:29;1.33;;;1.00;;
75311;SDS011;63906;55.686;37.532;2023-06-24T17:11:29;2.47;;;1.42;;
75311;SDS011;63906;55.686;37.532;2023-06-24T17:16:30;1.77;;;1.35;;
75311;SDS011;63906;55.686;37.532;2023-06-24T17:21:30;1.67;;;1.30;;
75311;SDS011;63906;55.686;37.532;2023-06-24T17:26:31;1.50;;;1.30;;
75311;SDS011;63906;55.686;37.532;2023-06-24T17:31:33;2.03;;;1.30;;
75311;SDS011;63906;55.686;37.532;2023-06-24T17:36:33;1.58;;;1.27;;
75311;SDS011;63906;55.686;37.532;2023-06-24T17:41:34;1.17;;;1.00;;
75311;SDS011;63906;55.686;37.532;2023-06-24T17:46:34;2.33;;;1.70;;
75311;SDS011;63906;55.686;37.532;2023-06-24T17:51:35;2.00;;;1.58;;
75311;SDS011;63906;55.686;37.532;2023-06-24T17:56:35;2.17;;;1.50;;
75311;SDS011;63906;55.686;37.532;2023-06-24T18:01:37;2.88;;;2.10;;
75311;SDS011;63906;55.686;37.532;2023-06-24T18:12:40;2.80;;;2.10;;
75311;SDS011;63906;55.686;37.532;2023-06-24T18:17:42;1.73;;;1.50;;
75311;SDS011;63906;55.686;37.532;2023-06-24T18:22:43;2.42;;;1.60;;
75311;SDS011;63906;55.686;37.532;2023-06-24T18:27:43;2.13;;;1.50;;
75311;SDS011;63906;55.686;37.532;2023-06-24T18:32:44;2.33;;;1.63;;
75311;SDS011;63906;55.686;37.532;2023-06-24T18:37:45;2.17;;;1.60;;
75311;SDS011;63906;55.686;37.532;2023-06-24T18:42:47;1.95;;;1.35;;
75311;SDS011;63906;55.686;37.532;2023-06-24T18:47:48;1.98;;;1.42;;
75311;SDS011;63906;55.686;37.532;2023-06-24T18:52:53;2.45;;;1.65;;
75311;SDS011;63906;55.686;37.532;2023-06-24T18:57:53;2.67;;;1.80;;
75311;SDS011;63906;55.686;37.532;2023-06-24T19:02:54;2.97;;;2.10;;
75311;SDS011;63906;55.686;37.532;2023-06-24T19:07:54;4.03;;;2.50;;
75311;SDS011;63906;55.686;37.532;2023-06-24T19:12:55;5.43;;;3.33;;
75311;SDS011;63906;55.686;37.532;2023-06-24T19:17:56;6.80;;;4.00;;
75311;SDS011;63906;55.686;37.532;2023-06-24T19:22:56;5.97;;;3.90;;
75311;SDS011;63906;55.686;37.532;2023-06-24T19:27:57;5.20;;;4.00;;
75311;SDS011;63906;55.686;37.532;2023-06-24T19:32:57;4.03;;;2.95;;
75311;SDS011;63906;55.686;37.532;2023-06-24T19:37:58;3.85;;;3.28;;
75311;SDS011;63906;55.686;37.532;2023-06-24T19:42:59;3.58;;;3.00;;
75311;SDS011;63906;55.686;37.532;2023-06-24T19:48:00;2.92;;;2.35;;
75311;SDS011;63906;55.686;37.532;2023-06-24T19:53:00;4.28;;;3.13;;
75311;SDS011;63906;55.686;37.532;2023-06-24T19:58:01;4.28;;;2.95;;
75311;SDS011;63906;55.686;37.532;2023-06-24T20:03:03;4.03;;;2.38;;
75311;SDS011;63906;55.686;37.532;2023-06-24T20:08:05;4.10;;;2.97;;
75311;SDS011;63906;55.686;37.532;2023-06-24T20:13:05;3.80;;;2.72;;
75311;SDS011;63906;55.686;37.532;2023-06-24T20:18:06;2.85;;;2.45;;
75311;SDS011;63906;55.686;37.532;2023-06-24T20:23:08;4.28;;;2.13;;
75311;SDS011;63906;55.686;37.532;2023-06-24T20:28:08;3.25;;;2.40;;
75311;SDS011;63906;55.686;37.532;2023-06-24T20:33:10;3.13;;;2.70;;
75311;SDS011;63906;55.686;37.532;2023-06-24T20:38:10;3.03;;;2.28;;
75311;SDS011;63906;55.686;37.532;2023-06-24T20:43:11;2.55;;;2.17;;
75311;SDS011;63906;55.686;37.532;2023-06-24T20:48:12;3.20;;;2.03;;
75311;SDS011;63906;55.686;37.532;2023-06-24T20:53:12;3.55;;;2.38;;
75311;SDS011;63906;55.686;37.532;2023-06-24T20:58:13;4.07;;;2.90;;
75311;SDS011;63906;55.686;37.532;2023-06-24T21:03:14;4.20;;;3.45;;
75311;SDS011;63906;55.686;37.532;2023-06-24T21:08:14;3.88;;;3.33;;
75311;SDS011;63906;55.686;37.532;2023-06-24T21:13:15;3.67;;;2.40;;
75311;SDS011;63906;55.686;37.532;2023-06-24T21:18:15;4.85;;;3.22;;
75311;SDS011;63906;55.686;37.532;2023-06-24T21:23:16;4.97;;;3.38;;
75311;SDS011;63906;55.686;37.532;2023-06-24T21:28:17;5.75;;;3.88;;
75311;SDS011;63906;55.686;37.532;2023-06-24T21:33:17;5.32;;;3.92;;
75311;SDS011;63906;55.686;37.532;2023-06-24T21:38:18;4.43;;;2.83;;
75311;SDS011;63906;55.686;37.532;2023-06-24T21:43:18;5.30;;;3.45;;
75311;SDS011;63906;55.686;37.532;2023-06-24T21:48:19;4.68;;;2.88;;
75311;SDS011;63906;55.686;37.532;2023-06-24T21:53:20;4.90;;;3.35;;
75311;SDS011;63906;55.686;37.532;2023-06-24T21:58:21;5.00;;;3.47;;
75311;SDS011;63906;55.686;37.532;2023-06-24T22:03:22;4.13;;;3.17;;
75311;SDS011;63906;55.686;37.532;2023-06-24T22:08:22;5.25;;;3.50;;
75311;SDS011;63906;55.686;37.532;2023-06-24T22:13:23;4.20;;;3.00;;
75311;SDS011;63906;55.686;37.532;2023-06-24T22:18:23;4.68;;;3.50;;
75311;SDS011;63906;55.686;37.532;2023-06-24T22:23:25;4.47;;;2.90;;
75311;SDS011;63906;55.686;37.532;2023-06-24T22:28:26;5.05;;;3.28;;
75311;SDS011;63906;55.686;37.532;2023-06-24T22:33:26;5.53;;;3.63;;
75311;SDS011;63906;55.686;37.532;2023-06-24T22:38:28;5.10;;;3.55;;
75311;SDS011;63906;55.686;37.532;2023-06-24T22:43:29;5.18;;;3.67;;
75311;SDS011;63906;55.686;37.532;2023-06-24T22:48:29;4.50;;;2.95;;
75311;SDS011;63906;55.686;37.532;2023-06-24T22:53:30;4.68;;;3.30;;
75311;SDS011;63906;55.686;37.532;2023-06-24T22:58:30;5.38;;;3.42;;
75311;SDS011;63906;55.686;37.532;2023-06-24T23:03:31;5.22;;;3.55;;
75311;SDS011;63906;55.686;37.532;2023-06-24T23:08:32;4.70;;;2.72;;
75311;SDS011;63906;55.686;37.532;2023-06-24T23:13:33;4.75;;;2.95;;
75311;SDS011;63906;55.686;37.532;2023-06-24T23:18:34;4.80;;;3.80;;
75311;SDS011;63906;55.686;37.532;2023-06-24T23:23:35;5.38;;;3.78;;
75311;SDS011;63906;55.686;37.532;2023-06-24T23:28:39;4.53;;;3.00;;
75311;SDS011;63906;55.686;37.532;2023-06-24T23:33:45;5.65;;;3.63;;
75311;SDS011;63906;55.686;37.532;2023-06-24T23:38:46;3.63;;;2.90;;
75311;SDS011;63906;55.686;37.532;2023-06-24T23:43:47;5.07;;;3.58;;
75311;SDS011;63906;55.686;37.532;2023-06-24T23:48:48;4.63;;;3.30;;
75311;SDS011;63906;55.686;37.532;2023-06-24T23:53:48;4.10;;;2.67;;
75311;SDS011;63906;55.686;37.532;2023-06-24T23:58:49;4.82;;;3.05;;
